Terminal Aerodrome Forecast
Issued by NWS Shreveport, LA

Home | Current Version | Previous Version | Text Only | Print | Product List | Glossary On
Versions: 1 2 3 4 5 6 7 8 9 10 11 12 13 14 15 16 17 18 19 20
874
FTUS44 KSHV 012355
TAFLFK
TAF
KLFK 012355Z 0200/0224 VRB04KT P6SM VCTS BKN035CB
      TEMPO 0201/0203 4SM TSRA BR BKN020CB
     FM020400 VRB04KT 6SM BR SCT020 BKN050
     FM020700 VRB05KT 4SM BR BKN015
     FM021200 01008KT P6SM VCTS OVC007CB
     FM021800 05009KT P6SM BKN015=

USA.gov is the U.S. government's official web portal to all federal, state and local government web resources and services.